sensor_id;sensor_type;location;lat;lon;timestamp;P1;durP1;ratioP1;P2;durP2;ratioP2
51228;SDS011;37304;52.216;6.874;2023-05-21T00:01:54;2.88;;;2.30;;
51228;SDS011;37304;52.216;6.874;2023-05-21T00:06:54;5.47;;;2.77;;
51228;SDS011;37304;52.216;6.874;2023-05-21T00:11:55;4.47;;;2.45;;
51228;SDS011;37304;52.216;6.874;2023-05-21T00:16:55;4.00;;;2.70;;
51228;SDS011;37304;52.216;6.874;2023-05-21T00:21:55;4.20;;;2.60;;
51228;SDS011;37304;52.216;6.874;2023-05-21T00:26:56;3.10;;;2.10;;
51228;SDS011;37304;52.216;6.874;2023-05-21T00:31:57;3.60;;;2.37;;
51228;SDS011;37304;52.216;6.874;2023-05-21T00:36:57;3.10;;;2.30;;
51228;SDS011;37304;52.216;6.874;2023-05-21T00:41:57;3.60;;;2.50;;
51228;SDS011;37304;52.216;6.874;2023-05-21T00:47:02;2.97;;;2.13;;
51228;SDS011;37304;52.216;6.874;2023-05-21T00:52:03;3.10;;;2.20;;
51228;SDS011;37304;52.216;6.874;2023-05-21T00:57:04;4.50;;;2.40;;
51228;SDS011;37304;52.216;6.874;2023-05-21T01:02:05;3.15;;;2.55;;
51228;SDS011;37304;52.216;6.874;2023-05-21T01:07:05;3.53;;;2.70;;
51228;SDS011;37304;52.216;6.874;2023-05-21T01:12:08;4.15;;;2.97;;
51228;SDS011;37304;52.216;6.874;2023-05-21T01:17:10;9.05;;;3.13;;
51228;SDS011;37304;52.216;6.874;2023-05-21T01:22:11;3.17;;;2.55;;
51228;SDS011;37304;52.216;6.874;2023-05-21T01:27:13;3.70;;;2.67;;
51228;SDS011;37304;52.216;6.874;2023-05-21T01:32:23;4.13;;;2.73;;
51228;SDS011;37304;52.216;6.874;2023-05-21T01:37:36;5.50;;;2.78;;
51228;SDS011;37304;52.216;6.874;2023-05-21T01:42:45;4.60;;;2.65;;
51228;SDS011;37304;52.216;6.874;2023-05-21T01:47:46;3.88;;;2.40;;
51228;SDS011;37304;52.216;6.874;2023-05-21T01:52:52;3.58;;;2.33;;
51228;SDS011;37304;52.216;6.874;2023-05-21T01:57:56;5.68;;;2.83;;
51228;SDS011;37304;52.216;6.874;2023-05-21T02:02:57;5.70;;;2.85;;
51228;SDS011;37304;52.216;6.874;2023-05-21T02:08:00;3.85;;;2.55;;
51228;SDS011;37304;52.216;6.874;2023-05-21T02:13:00;4.23;;;2.67;;
51228;SDS011;37304;52.216;6.874;2023-05-21T02:18:01;5.77;;;3.00;;
51228;SDS011;37304;52.216;6.874;2023-05-21T02:23:02;6.18;;;3.00;;
51228;SDS011;37304;52.216;6.874;2023-05-21T02:28:02;6.67;;;3.30;;
51228;SDS011;37304;52.216;6.874;2023-05-21T02:33:03;5.57;;;3.03;;
51228;SDS011;37304;52.216;6.874;2023-05-21T02:38:03;7.37;;;3.40;;
51228;SDS011;37304;52.216;6.874;2023-05-21T02:43:04;4.00;;;2.90;;
51228;SDS011;37304;52.216;6.874;2023-05-21T02:48:04;5.93;;;2.90;;
51228;SDS011;37304;52.216;6.874;2023-05-21T02:53:05;4.23;;;2.87;;
51228;SDS011;37304;52.216;6.874;2023-05-21T02:58:06;4.75;;;3.17;;
51228;SDS011;37304;52.216;6.874;2023-05-21T03:03:06;3.57;;;2.50;;
51228;SDS011;37304;52.216;6.874;2023-05-21T03:08:06;5.27;;;3.10;;
51228;SDS011;37304;52.216;6.874;2023-05-21T03:13:07;7.00;;;3.60;;
51228;SDS011;37304;52.216;6.874;2023-05-21T03:18:07;4.23;;;3.03;;
51228;SDS011;37304;52.216;6.874;2023-05-21T03:23:08;9.10;;;3.83;;
51228;SDS011;37304;52.216;6.874;2023-05-21T03:28:11;5.63;;;3.60;;
51228;SDS011;37304;52.216;6.874;2023-05-21T03:33:12;6.10;;;3.33;;
51228;SDS011;37304;52.216;6.874;2023-05-21T03:38:13;5.38;;;3.15;;
51228;SDS011;37304;52.216;6.874;2023-05-21T03:43:13;6.47;;;4.00;;
51228;SDS011;37304;52.216;6.874;2023-05-21T03:48:13;5.80;;;3.43;;
51228;SDS011;37304;52.216;6.874;2023-05-21T03:53:14;5.87;;;3.70;;
51228;SDS011;37304;52.216;6.874;2023-05-21T03:58:14;5.73;;;3.80;;
51228;SDS011;37304;52.216;6.874;2023-05-21T04:03:14;5.30;;;3.73;;
51228;SDS011;37304;52.216;6.874;2023-05-21T04:08:15;5.45;;;3.88;;
51228;SDS011;37304;52.216;6.874;2023-05-21T04:13:15;5.37;;;3.50;;
51228;SDS011;37304;52.216;6.874;2023-05-21T04:18:16;5.93;;;3.73;;
51228;SDS011;37304;52.216;6.874;2023-05-21T04:23:16;5.50;;;3.87;;
51228;SDS011;37304;52.216;6.874;2023-05-21T04:28:16;5.10;;;3.83;;
51228;SDS011;37304;52.216;6.874;2023-05-21T04:33:20;7.82;;;3.72;;
51228;SDS011;37304;52.216;6.874;2023-05-21T04:38:20;7.83;;;4.20;;
51228;SDS011;37304;52.216;6.874;2023-05-21T04:43:20;7.20;;;4.57;;
51228;SDS011;37304;52.216;6.874;2023-05-21T04:48:24;6.55;;;4.35;;
51228;SDS011;37304;52.216;6.874;2023-05-21T04:53:27;8.10;;;4.13;;
51228;SDS011;37304;52.216;6.874;2023-05-21T04:58:28;4.97;;;3.90;;
51228;SDS011;37304;52.216;6.874;2023-05-21T05:03:31;6.75;;;4.18;;
51228;SDS011;37304;52.216;6.874;2023-05-21T05:08:32;7.70;;;3.90;;
51228;SDS011;37304;52.216;6.874;2023-05-21T05:13:33;5.60;;;3.83;;
51228;SDS011;37304;52.216;6.874;2023-05-21T05:18:34;7.88;;;4.43;;
51228;SDS011;37304;52.216;6.874;2023-05-21T05:23:35;10.63;;;4.30;;
51228;SDS011;37304;52.216;6.874;2023-05-21T05:28:35;9.80;;;4.20;;
51228;SDS011;37304;52.216;6.874;2023-05-21T05:33:36;6.75;;;4.32;;
51228;SDS011;37304;52.216;6.874;2023-05-21T05:38:36;9.93;;;3.90;;
51228;SDS011;37304;52.216;6.874;2023-05-21T05:43:37;7.27;;;4.40;;
51228;SDS011;37304;52.216;6.874;2023-05-21T05:48:37;6.80;;;4.20;;
51228;SDS011;37304;52.216;6.874;2023-05-21T05:53:37;6.73;;;4.20;;
51228;SDS011;37304;52.216;6.874;2023-05-21T05:58:38;5.70;;;3.97;;
51228;SDS011;37304;52.216;6.874;2023-05-21T06:03:38;8.33;;;4.17;;
51228;SDS011;37304;52.216;6.874;2023-05-21T06:08:38;9.30;;;4.13;;
51228;SDS011;37304;52.216;6.874;2023-05-21T06:13:39;5.95;;;4.13;;
51228;SDS011;37304;52.216;6.874;2023-05-21T06:18:39;7.23;;;4.33;;
51228;SDS011;37304;52.216;6.874;2023-05-21T06:23:40;7.63;;;4.63;;
51228;SDS011;37304;52.216;6.874;2023-05-21T06:28:40;9.33;;;4.50;;
51228;SDS011;37304;52.216;6.874;2023-05-21T06:33:41;5.67;;;4.07;;
51228;SDS011;37304;52.216;6.874;2023-05-21T06:38:41;7.90;;;4.17;;
51228;SDS011;37304;52.216;6.874;2023-05-21T06:43:41;10.73;;;4.60;;
51228;SDS011;37304;52.216;6.874;2023-05-21T06:48:42;11.52;;;4.43;;
51228;SDS011;37304;52.216;6.874;2023-05-21T06:53:43;8.45;;;4.65;;
51228;SDS011;37304;52.216;6.874;2023-05-21T06:58:43;8.60;;;4.20;;
51228;SDS011;37304;52.216;6.874;2023-05-21T07:03:44;7.57;;;4.90;;
51228;SDS011;37304;52.216;6.874;2023-05-21T07:08:44;7.17;;;4.37;;
51228;SDS011;37304;52.216;6.874;2023-05-21T07:13:45;6.83;;;4.60;;
51228;SDS011;37304;52.216;6.874;2023-05-21T07:18:45;6.23;;;4.33;;
51228;SDS011;37304;52.216;6.874;2023-05-21T07:23:45;8.03;;;4.30;;
51228;SDS011;37304;52.216;6.874;2023-05-21T07:28:46;7.57;;;4.00;;
51228;SDS011;37304;52.216;6.874;2023-05-21T07:33:46;10.03;;;4.43;;
51228;SDS011;37304;52.216;6.874;2023-05-21T07:38:46;11.60;;;5.17;;
51228;SDS011;37304;52.216;6.874;2023-05-21T07:43:47;8.23;;;4.23;;
51228;SDS011;37304;52.216;6.874;2023-05-21T07:48:47;7.10;;;4.47;;
51228;SDS011;37304;52.216;6.874;2023-05-21T07:53:48;6.13;;;4.57;;
51228;SDS011;37304;52.216;6.874;2023-05-21T07:58:49;6.60;;;4.70;;
51228;SDS011;37304;52.216;6.874;2023-05-21T08:03:49;8.27;;;5.20;;
51228;SDS011;37304;52.216;6.874;2023-05-21T08:08:50;8.52;;;4.90;;
51228;SDS011;37304;52.216;6.874;2023-05-21T08:13:50;8.10;;;4.63;;
51228;SDS011;37304;52.216;6.874;2023-05-21T08:18:50;7.07;;;4.47;;
51228;SDS011;37304;52.216;6.874;2023-05-21T08:23:51;8.03;;;4.37;;
51228;SDS011;37304;52.216;6.874;2023-05-21T08:28:52;8.43;;;5.18;;
51228;SDS011;37304;52.216;6.874;2023-05-21T08:33:52;8.30;;;5.53;;
51228;SDS011;37304;52.216;6.874;2023-05-21T08:38:55;10.25;;;5.22;;
51228;SDS011;37304;52.216;6.874;2023-05-21T08:43:55;9.30;;;5.33;;
51228;SDS011;37304;52.216;6.874;2023-05-21T08:49:00;8.80;;;5.80;;
51228;SDS011;37304;52.216;6.874;2023-05-21T08:54:01;9.15;;;5.70;;
51228;SDS011;37304;52.216;6.874;2023-05-21T08:59:12;9.20;;;5.55;;
51228;SDS011;37304;52.216;6.874;2023-05-21T09:04:14;10.70;;;6.07;;
51228;SDS011;37304;52.216;6.874;2023-05-21T09:09:23;9.55;;;5.95;;
51228;SDS011;37304;52.216;6.874;2023-05-21T09:14:27;10.10;;;6.20;;
51228;SDS011;37304;52.216;6.874;2023-05-21T09:19:27;13.32;;;5.90;;
51228;SDS011;37304;52.216;6.874;2023-05-21T09:24:30;8.93;;;5.65;;
51228;SDS011;37304;52.216;6.874;2023-05-21T09:29:32;11.45;;;6.43;;
51228;SDS011;37304;52.216;6.874;2023-05-21T09:34:34;12.13;;;6.43;;
51228;SDS011;37304;52.216;6.874;2023-05-21T09:39:35;9.95;;;6.70;;
51228;SDS011;37304;52.216;6.874;2023-05-21T09:44:39;10.88;;;7.70;;
51228;SDS011;37304;52.216;6.874;2023-05-21T09:49:43;9.55;;;6.35;;
51228;SDS011;37304;52.216;6.874;2023-05-21T09:54:43;8.88;;;6.20;;
51228;SDS011;37304;52.216;6.874;2023-05-21T09:59:43;12.23;;;7.33;;
51228;SDS011;37304;52.216;6.874;2023-05-21T10:04:45;10.68;;;7.97;;
51228;SDS011;37304;52.216;6.874;2023-05-21T10:09:48;10.40;;;7.38;;
51228;SDS011;37304;52.216;6.874;2023-05-21T10:15:04;11.98;;;7.63;;
51228;SDS011;37304;52.216;6.874;2023-05-21T10:20:09;10.25;;;7.63;;
51228;SDS011;37304;52.216;6.874;2023-05-21T10:25:11;13.80;;;7.68;;
51228;SDS011;37304;52.216;6.874;2023-05-21T10:30:12;14.20;;;8.07;;
51228;SDS011;37304;52.216;6.874;2023-05-21T10:35:16;13.05;;;8.25;;
51228;SDS011;37304;52.216;6.874;2023-05-21T10:40:17;13.82;;;9.07;;
51228;SDS011;37304;52.216;6.874;2023-05-21T10:45:22;13.33;;;9.10;;
51228;SDS011;37304;52.216;6.874;2023-05-21T10:55:46;12.68;;;9.23;;
51228;SDS011;37304;52.216;6.874;2023-05-21T11:01:14;14.40;;;9.35;;
51228;SDS011;37304;52.216;6.874;2023-05-21T11:06:21;16.33;;;7.95;;
51228;SDS011;37304;52.216;6.874;2023-05-21T11:16:50;19.02;;;9.30;;
51228;SDS011;37304;52.216;6.874;2023-05-21T11:21:50;12.50;;;8.60;;
51228;SDS011;37304;52.216;6.874;2023-05-21T11:32:00;13.57;;;9.23;;
51228;SDS011;37304;52.216;6.874;2023-05-21T11:47:38;15.68;;;9.35;;
51228;SDS011;37304;52.216;6.874;2023-05-21T11:52:39;15.60;;;9.95;;
51228;SDS011;37304;52.216;6.874;2023-05-21T11:57:42;15.52;;;9.20;;
51228;SDS011;37304;52.216;6.874;2023-05-21T12:02:44;12.63;;;9.00;;
51228;SDS011;37304;52.216;6.874;2023-05-21T12:07:51;19.75;;;8.43;;
51228;SDS011;37304;52.216;6.874;2023-05-21T12:12:59;14.70;;;8.63;;
51228;SDS011;37304;52.216;6.874;2023-05-21T12:18:00;14.43;;;8.75;;
51228;SDS011;37304;52.216;6.874;2023-05-21T12:23:01;13.60;;;9.52;;
51228;SDS011;37304;52.216;6.874;2023-05-21T12:28:02;14.90;;;8.90;;
51228;SDS011;37304;52.216;6.874;2023-05-21T12:33:10;13.63;;;8.45;;
51228;SDS011;37304;52.216;6.874;2023-05-21T12:38:19;12.23;;;8.73;;
51228;SDS011;37304;52.216;6.874;2023-05-21T12:43:22;12.50;;;8.10;;
51228;SDS011;37304;52.216;6.874;2023-05-21T12:48:23;12.87;;;9.23;;
51228;SDS011;37304;52.216;6.874;2023-05-21T12:53:23;14.40;;;8.88;;
51228;SDS011;37304;52.216;6.874;2023-05-21T12:58:25;14.20;;;8.73;;
51228;SDS011;37304;52.216;6.874;2023-05-21T13:03:27;11.68;;;7.95;;
51228;SDS011;37304;52.216;6.874;2023-05-21T13:08:27;11.27;;;7.37;;
51228;SDS011;37304;52.216;6.874;2023-05-21T13:13:33;10.55;;;7.68;;
51228;SDS011;37304;52.216;6.874;2023-05-21T13:18:33;10.07;;;8.20;;
51228;SDS011;37304;52.216;6.874;2023-05-21T13:23:34;11.90;;;7.83;;
51228;SDS011;37304;52.216;6.874;2023-05-21T13:28:36;12.90;;;8.30;;
51228;SDS011;37304;52.216;6.874;2023-05-21T13:33:37;12.63;;;8.70;;
51228;SDS011;37304;52.216;6.874;2023-05-21T13:38:38;13.20;;;8.50;;
51228;SDS011;37304;52.216;6.874;2023-05-21T13:43:42;13.60;;;8.57;;
51228;SDS011;37304;52.216;6.874;2023-05-21T13:48:43;12.05;;;8.82;;
51228;SDS011;37304;52.216;6.874;2023-05-21T13:53:43;16.93;;;8.87;;
51228;SDS011;37304;52.216;6.874;2023-05-21T13:58:43;14.17;;;7.53;;
51228;SDS011;37304;52.216;6.874;2023-05-21T14:03:45;13.10;;;8.45;;
51228;SDS011;37304;52.216;6.874;2023-05-21T14:08:45;13.07;;;8.30;;
51228;SDS011;37304;52.216;6.874;2023-05-21T14:13:45;15.67;;;8.70;;
51228;SDS011;37304;52.216;6.874;2023-05-21T14:18:46;13.03;;;7.93;;
51228;SDS011;37304;52.216;6.874;2023-05-21T14:23:46;11.53;;;7.83;;
51228;SDS011;37304;52.216;6.874;2023-05-21T14:28:47;13.52;;;7.82;;
51228;SDS011;37304;52.216;6.874;2023-05-21T14:33:47;10.20;;;7.30;;
51228;SDS011;37304;52.216;6.874;2023-05-21T14:38:48;10.57;;;7.67;;
51228;SDS011;37304;52.216;6.874;2023-05-21T14:43:48;12.77;;;8.03;;
51228;SDS011;37304;52.216;6.874;2023-05-21T14:48:49;11.23;;;7.63;;
51228;SDS011;37304;52.216;6.874;2023-05-21T14:53:49;10.63;;;8.03;;
51228;SDS011;37304;52.216;6.874;2023-05-21T14:58:50;11.07;;;7.28;;
51228;SDS011;37304;52.216;6.874;2023-05-21T15:03:50;13.52;;;8.00;;
51228;SDS011;37304;52.216;6.874;2023-05-21T15:08:51;11.90;;;8.20;;
51228;SDS011;37304;52.216;6.874;2023-05-21T15:13:51;13.23;;;8.03;;
51228;SDS011;37304;52.216;6.874;2023-05-21T15:18:51;10.57;;;7.67;;
51228;SDS011;37304;52.216;6.874;2023-05-21T15:23:52;12.75;;;8.43;;
51228;SDS011;37304;52.216;6.874;2023-05-21T15:28:52;9.73;;;7.33;;
51228;SDS011;37304;52.216;6.874;2023-05-21T15:33:53;11.57;;;7.57;;
51228;SDS011;37304;52.216;6.874;2023-05-21T15:38:53;11.23;;;7.75;;
51228;SDS011;37304;52.216;6.874;2023-05-21T15:43:53;13.07;;;8.23;;
51228;SDS011;37304;52.216;6.874;2023-05-21T15:48:54;13.40;;;8.33;;
51228;SDS011;37304;52.216;6.874;2023-05-21T15:53:54;12.70;;;8.50;;
51228;SDS011;37304;52.216;6.874;2023-05-21T15:58:54;12.77;;;8.10;;
51228;SDS011;37304;52.216;6.874;2023-05-21T16:03:59;13.18;;;8.57;;
51228;SDS011;37304;52.216;6.874;2023-05-21T16:09:01;12.52;;;8.38;;
51228;SDS011;37304;52.216;6.874;2023-05-21T16:14:01;12.50;;;7.80;;
51228;SDS011;37304;52.216;6.874;2023-05-21T16:19:01;15.63;;;8.37;;
51228;SDS011;37304;52.216;6.874;2023-05-21T16:24:02;10.70;;;8.10;;
51228;SDS011;37304;52.216;6.874;2023-05-21T16:29:02;12.43;;;7.88;;
51228;SDS011;37304;52.216;6.874;2023-05-21T16:34:03;14.17;;;8.67;;
51228;SDS011;37304;52.216;6.874;2023-05-21T16:39:03;16.23;;;8.23;;
51228;SDS011;37304;52.216;6.874;2023-05-21T16:44:04;15.13;;;8.75;;
51228;SDS011;37304;52.216;6.874;2023-05-21T16:49:04;13.37;;;8.97;;
51228;SDS011;37304;52.216;6.874;2023-05-21T16:54:05;11.47;;;8.10;;
51228;SDS011;37304;52.216;6.874;2023-05-21T16:59:05;14.27;;;8.63;;
51228;SDS011;37304;52.216;6.874;2023-05-21T17:04:05;12.23;;;8.80;;
51228;SDS011;37304;52.216;6.874;2023-05-21T17:09:06;14.47;;;8.80;;
51228;SDS011;37304;52.216;6.874;2023-05-21T17:14:06;15.17;;;9.73;;
51228;SDS011;37304;52.216;6.874;2023-05-21T17:19:06;13.33;;;8.90;;
51228;SDS011;37304;52.216;6.874;2023-05-21T17:24:07;13.60;;;8.73;;
51228;SDS011;37304;52.216;6.874;2023-05-21T17:29:08;15.90;;;9.37;;
51228;SDS011;37304;52.216;6.874;2023-05-21T17:34:08;11.60;;;7.90;;
51228;SDS011;37304;52.216;6.874;2023-05-21T17:39:08;15.70;;;9.73;;
51228;SDS011;37304;52.216;6.874;2023-05-21T17:44:09;13.53;;;8.33;;
51228;SDS011;37304;52.216;6.874;2023-05-21T17:49:10;13.77;;;9.93;;
51228;SDS011;37304;52.216;6.874;2023-05-21T17:54:11;14.45;;;8.70;;
51228;SDS011;37304;52.216;6.874;2023-05-21T17:59:13;13.47;;;9.00;;
51228;SDS011;37304;52.216;6.874;2023-05-21T18:04:13;14.45;;;8.90;;
51228;SDS011;37304;52.216;6.874;2023-05-21T18:09:14;13.20;;;9.43;;
51228;SDS011;37304;52.216;6.874;2023-05-21T18:14:14;16.07;;;8.80;;
51228;SDS011;37304;52.216;6.874;2023-05-21T18:19:15;14.73;;;8.80;;
51228;SDS011;37304;52.216;6.874;2023-05-21T18:24:15;17.40;;;9.70;;
51228;SDS011;37304;52.216;6.874;2023-05-21T18:29:15;14.60;;;8.90;;
51228;SDS011;37304;52.216;6.874;2023-05-21T18:34:16;12.57;;;9.23;;
51228;SDS011;37304;52.216;6.874;2023-05-21T18:39:16;13.00;;;8.77;;
51228;SDS011;37304;52.216;6.874;2023-05-21T18:44:16;12.07;;;8.93;;
51228;SDS011;37304;52.216;6.874;2023-05-21T18:49:17;13.53;;;8.57;;
51228;SDS011;37304;52.216;6.874;2023-05-21T18:54:18;12.27;;;8.68;;
51228;SDS011;37304;52.216;6.874;2023-05-21T18:59:19;14.70;;;9.93;;
51228;SDS011;37304;52.216;6.874;2023-05-21T19:04:19;14.23;;;9.17;;
51228;SDS011;37304;52.216;6.874;2023-05-21T19:09:20;15.48;;;9.60;;
51228;SDS011;37304;52.216;6.874;2023-05-21T19:14:20;14.03;;;10.10;;
51228;SDS011;37304;52.216;6.874;2023-05-21T19:19:21;17.47;;;9.50;;
51228;SDS011;37304;52.216;6.874;2023-05-21T19:24:21;16.17;;;10.67;;
51228;SDS011;37304;52.216;6.874;2023-05-21T19:29:22;13.40;;;8.30;;
51228;SDS011;37304;52.216;6.874;2023-05-21T19:34:22;15.80;;;9.57;;
51228;SDS011;37304;52.216;6.874;2023-05-21T19:39:22;24.33;;;10.30;;
51228;SDS011;37304;52.216;6.874;2023-05-21T19:44:23;13.83;;;9.23;;
51228;SDS011;37304;52.216;6.874;2023-05-21T19:49:23;14.57;;;9.93;;
51228;SDS011;37304;52.216;6.874;2023-05-21T19:54:24;14.30;;;9.50;;
51228;SDS011;37304;52.216;6.874;2023-05-21T19:59:24;17.35;;;9.95;;
51228;SDS011;37304;52.216;6.874;2023-05-21T20:04:25;16.17;;;10.30;;
51228;SDS011;37304;52.216;6.874;2023-05-21T20:09:26;15.13;;;9.43;;
51228;SDS011;37304;52.216;6.874;2023-05-21T20:14:26;14.97;;;9.47;;
51228;SDS011;37304;52.216;6.874;2023-05-21T20:19:26;16.27;;;10.20;;
51228;SDS011;37304;52.216;6.874;2023-05-21T20:24:27;18.45;;;10.23;;
51228;SDS011;37304;52.216;6.874;2023-05-21T20:29:27;17.87;;;11.00;;
51228;SDS011;37304;52.216;6.874;2023-05-21T20:34:28;18.52;;;10.88;;
51228;SDS011;37304;52.216;6.874;2023-05-21T20:39:28;16.43;;;10.33;;
51228;SDS011;37304;52.216;6.874;2023-05-21T20:44:29;20.42;;;11.40;;
51228;SDS011;37304;52.216;6.874;2023-05-21T20:49:30;15.65;;;10.13;;
51228;SDS011;37304;52.216;6.874;2023-05-21T20:54:33;17.45;;;10.07;;
51228;SDS011;37304;52.216;6.874;2023-05-21T20:59:34;19.00;;;10.80;;
51228;SDS011;37304;52.216;6.874;2023-05-21T21:04:34;17.60;;;10.40;;
51228;SDS011;37304;52.216;6.874;2023-05-21T21:09:36;18.63;;;11.57;;
51228;SDS011;37304;52.216;6.874;2023-05-21T21:14:37;16.53;;;10.43;;
51228;SDS011;37304;52.216;6.874;2023-05-21T21:19:38;19.63;;;11.27;;
51228;SDS011;37304;52.216;6.874;2023-05-21T21:24:38;17.60;;;10.13;;
51228;SDS011;37304;52.216;6.874;2023-05-21T21:29:38;15.43;;;10.07;;
51228;SDS011;37304;52.216;6.874;2023-05-21T21:34:39;14.07;;;7.72;;
51228;SDS011;37304;52.216;6.874;2023-05-21T21:39:39;13.67;;;7.40;;
51228;SDS011;37304;52.216;6.874;2023-05-21T21:44:39;10.88;;;7.47;;
51228;SDS011;37304;52.216;6.874;2023-05-21T21:49:40;9.63;;;6.87;;
51228;SDS011;37304;52.216;6.874;2023-05-21T21:54:40;9.83;;;6.07;;
51228;SDS011;37304;52.216;6.874;2023-05-21T21:59:40;12.53;;;7.20;;
51228;SDS011;37304;52.216;6.874;2023-05-21T22:04:41;10.47;;;7.20;;
51228;SDS011;37304;52.216;6.874;2023-05-21T22:09:43;9.57;;;7.25;;
51228;SDS011;37304;52.216;6.874;2023-05-21T22:14:44;12.60;;;6.55;;
51228;SDS011;37304;52.216;6.874;2023-05-21T22:19:44;10.17;;;7.23;;
51228;SDS011;37304;52.216;6.874;2023-05-21T22:24:44;12.50;;;7.80;;
51228;SDS011;37304;52.216;6.874;2023-05-21T22:29:45;9.10;;;6.77;;
51228;SDS011;37304;52.216;6.874;2023-05-21T22:34:45;8.32;;;6.38;;
51228;SDS011;37304;52.216;6.874;2023-05-21T22:39:46;14.00;;;7.30;;
51228;SDS011;37304;52.216;6.874;2023-05-21T22:44:46;10.37;;;6.70;;
51228;SDS011;37304;52.216;6.874;2023-05-21T22:49:47;12.13;;;7.45;;
51228;SDS011;37304;52.216;6.874;2023-05-21T22:54:47;13.00;;;7.20;;
51228;SDS011;37304;52.216;6.874;2023-05-21T22:59:48;11.68;;;6.82;;
51228;SDS011;37304;52.216;6.874;2023-05-21T23:04:48;11.10;;;7.17;;
51228;SDS011;37304;52.216;6.874;2023-05-21T23:09:49;8.83;;;6.67;;
51228;SDS011;37304;52.216;6.874;2023-05-21T23:14:50;10.30;;;6.88;;
51228;SDS011;37304;52.216;6.874;2023-05-21T23:19:50;11.30;;;6.67;;
51228;SDS011;37304;52.216;6.874;2023-05-21T23:24:51;11.17;;;6.70;;
51228;SDS011;37304;52.216;6.874;2023-05-21T23:29:53;10.43;;;6.57;;
51228;SDS011;37304;52.216;6.874;2023-05-21T23:34:53;8.43;;;6.20;;
51228;SDS011;37304;52.216;6.874;2023-05-21T23:39:54;10.73;;;6.90;;
51228;SDS011;37304;52.216;6.874;2023-05-21T23:44:55;12.20;;;7.17;;
51228;SDS011;37304;52.216;6.874;2023-05-21T23:49:55;10.43;;;6.53;;
51228;SDS011;37304;52.216;6.874;2023-05-21T23:54:55;8.80;;;6.40;;
51228;SDS011;37304;52.216;6.874;2023-05-21T23:59:56;12.23;;;6.95;;
